createdAt,value
2022-12-24T00:01:20.132Z,49.45
2022-12-24T00:03:21.919Z,44.42
2022-12-24T00:05:23.818Z,41.38
2022-12-24T00:07:25.703Z,49.67
2022-12-24T00:09:27.440Z,58.20
2022-12-24T00:11:29.375Z,49.15
2022-12-24T00:13:31.360Z,49.58
2022-12-24T00:15:33.085Z,48.13
2022-12-24T00:17:34.793Z,39.95
2022-12-24T00:19:36.548Z,51.67
2022-12-24T00:21:38.182Z,51.33
2022-12-24T00:23:40.432Z,44.55
2022-12-24T00:25:42.233Z,49.10
2022-12-24T00:27:43.934Z,49.60
2022-12-24T00:29:45.748Z,43.28
2022-12-24T00:31:47.469Z,44.47
2022-12-24T00:33:50.003Z,44.60
2022-12-24T00:35:52.830Z,41.10
2022-12-24T00:37:54.550Z,41.25
2022-12-24T00:39:56.290Z,45.45
2022-12-24T00:41:57.980Z,40.50
2022-12-24T00:44:02.054Z,46.97
2022-12-24T00:46:03.807Z,43.97
2022-12-24T00:48:05.810Z,48.33
2022-12-24T00:50:08.251Z,41.42
2022-12-24T00:52:09.973Z,45.88
2022-12-24T00:54:12.050Z,42.40
2022-12-24T00:56:13.876Z,44.05
2022-12-24T00:58:15.568Z,51.00
2022-12-24T01:00:18.118Z,48.00
2022-12-24T01:02:20.157Z,44.13
2022-12-24T01:04:40.735Z,45.33
2022-12-24T01:06:42.571Z,45.47
2022-12-24T01:08:44.262Z,48.15
2022-12-24T01:10:46.130Z,45.10
2022-12-24T01:12:48.072Z,46.45
2022-12-24T01:14:49.865Z,47.03
2022-12-24T01:16:51.492Z,43.58
2022-12-24T01:18:53.709Z,43.63
2022-12-24T01:21:01.534Z,36.70
2022-12-24T01:23:03.253Z,39.38
2022-12-24T01:25:05.381Z,39.88
2022-12-24T01:27:07.068Z,45.85
2022-12-24T01:29:08.786Z,42.30
2022-12-24T01:31:15.414Z,43.35
2022-12-24T01:33:17.250Z,46.15
2022-12-24T01:35:18.905Z,47.08
2022-12-24T01:37:20.712Z,43.55
2022-12-24T01:39:22.478Z,47.03
2022-12-24T01:41:43.764Z,46.78
2022-12-24T01:43:45.792Z,50.63
2022-12-24T01:45:49.198Z,51.90
2022-12-24T01:47:50.973Z,43.60
2022-12-24T01:49:57.423Z,46.03
2022-12-24T01:52:03.795Z,44.42
2022-12-24T01:54:08.539Z,45.28
2022-12-24T01:56:10.944Z,43.08
2022-12-24T01:58:14.500Z,45.70
2022-12-24T02:00:16.840Z,46.75
2022-12-24T02:02:19.517Z,41.92
2022-12-24T02:04:26.228Z,42.10
2022-12-24T02:06:28.080Z,43.05
2022-12-24T02:08:40.137Z,43.55
2022-12-24T02:10:42.301Z,41.90
2022-12-24T02:12:44.691Z,40.75
2022-12-24T02:14:46.389Z,44.20
2022-12-24T02:16:58.216Z,43.65
2022-12-24T02:19:11.519Z,47.60
2022-12-24T02:21:22.714Z,42.03
2022-12-24T02:23:58.066Z,43.95
2022-12-24T02:26:20.466Z,42.65
2022-12-24T02:28:40.608Z,42.45
2022-12-24T02:30:45.026Z,37.70
2022-12-24T02:32:58.639Z,43.25
2022-12-24T02:35:12.786Z,41.42
2022-12-24T02:37:35.122Z,41.00
2022-12-24T02:40:01.390Z,38.95
2022-12-24T02:42:06.004Z,36.00
2022-12-24T02:44:07.682Z,35.03
2022-12-24T02:46:13.196Z,34.80
2022-12-24T02:48:17.561Z,37.08
2022-12-24T02:50:20.484Z,39.08
2022-12-24T02:52:51.613Z,34.58
2022-12-24T02:54:53.283Z,35.65
2022-12-24T02:57:19.009Z,39.63
2022-12-24T02:59:33.088Z,41.72
2022-12-24T03:02:06.646Z,43.28
2022-12-24T03:04:12.065Z,44.78
2022-12-24T03:06:52.363Z,39.92
2022-12-24T03:09:06.447Z,47.50
2022-12-24T03:11:12.805Z,75.28
2022-12-24T03:13:17.079Z,57.15
2022-12-24T03:15:22.224Z,49.53
2022-12-24T03:17:23.972Z,51.65
2022-12-24T03:19:26.664Z,44.17
2022-12-24T03:21:31.985Z,35.38
2022-12-24T03:23:34.449Z,36.65
2022-12-24T03:25:40.216Z,35.25
2022-12-24T03:27:42.390Z,40.03
2022-12-24T03:29:45.303Z,43.65
2022-12-24T03:31:50.972Z,43.42
2022-12-24T03:33:52.659Z,37.50
2022-12-24T03:35:54.341Z,37.90
2022-12-24T03:37:56.888Z,35.65
2022-12-24T03:39:58.805Z,37.63
2022-12-24T03:42:00.466Z,35.10
2022-12-24T03:44:02.183Z,38.67
2022-12-24T03:46:06.756Z,39.40
2022-12-24T03:48:08.553Z,39.00
2022-12-24T03:50:10.438Z,46.38
2022-12-24T03:52:12.210Z,47.22
2022-12-24T03:54:13.877Z,44.97
2022-12-24T03:56:15.617Z,49.35
2022-12-24T03:58:17.437Z,48.25
2022-12-24T04:00:19.732Z,48.08
2022-12-24T04:02:21.603Z,54.25
2022-12-24T04:04:23.411Z,58.78
2022-12-24T04:06:25.075Z,56.55
2022-12-24T04:08:26.821Z,58.28
2022-12-24T04:10:28.481Z,52.90
2022-12-24T04:12:30.158Z,42.58
2022-12-24T04:14:32.034Z,48.08
2022-12-24T04:16:33.811Z,45.72
2022-12-24T04:18:36.150Z,38.85
2022-12-24T04:20:38.027Z,41.88
2022-12-24T04:22:39.685Z,42.70
2022-12-24T04:24:41.550Z,40.60
2022-12-24T04:26:43.346Z,43.38
2022-12-24T04:28:45.049Z,35.58
2022-12-24T04:30:46.707Z,38.25
2022-12-24T04:32:48.393Z,38.85
2022-12-24T04:34:50.188Z,42.53
2022-12-24T04:36:51.894Z,42.65
2022-12-24T04:38:53.740Z,37.40
2022-12-24T04:41:00.408Z,35.17
2022-12-24T04:43:02.264Z,32.42
2022-12-24T04:45:04.306Z,30.95
2022-12-24T04:47:05.998Z,31.42
2022-12-24T04:49:08.219Z,32.53
2022-12-24T04:51:10.133Z,29.45
2022-12-24T04:53:15.076Z,39.28
2022-12-24T04:55:16.765Z,35.83
2022-12-24T04:57:18.522Z,34.45
2022-12-24T04:59:20.224Z,36.70
2022-12-24T05:01:27.188Z,37.63
2022-12-24T05:03:29.095Z,38.40
2022-12-24T05:05:31.137Z,35.08
2022-12-24T05:07:34.349Z,35.50
2022-12-24T05:09:36.337Z,35.45
2022-12-24T05:11:38.105Z,33.38
2022-12-24T05:13:46.604Z,31.95
2022-12-24T05:15:49.270Z,31.30
2022-12-24T05:17:51.313Z,35.13
2022-12-24T05:19:52.980Z,34.45
2022-12-24T05:22:12.934Z,36.85
2022-12-24T05:24:33.472Z,29.45
2022-12-24T05:26:40.099Z,28.38
2022-12-24T05:28:41.809Z,32.25
2022-12-24T05:30:43.564Z,29.05
2022-12-24T05:32:45.205Z,29.50
2022-12-24T05:34:46.978Z,33.45
2022-12-24T05:36:48.638Z,31.20
2022-12-24T05:38:50.750Z,28.15
2022-12-24T05:40:52.494Z,28.85
2022-12-24T05:42:54.207Z,29.58
2022-12-24T05:44:56.199Z,25.70
2022-12-24T05:46:57.907Z,43.85
2022-12-24T05:48:59.636Z,42.40
2022-12-24T05:51:06.230Z,36.50
2022-12-24T05:53:08.339Z,37.20
2022-12-24T05:55:10.341Z,43.67
2022-12-24T05:57:12.156Z,38.03
2022-12-24T05:59:13.906Z,35.50
2022-12-24T06:01:16.223Z,30.90
2022-12-24T06:03:17.993Z,39.13
2022-12-24T06:05:19.592Z,46.83
2022-12-24T06:07:21.896Z,52.83
2022-12-24T06:09:23.597Z,60.60
2022-12-24T06:11:27.223Z,55.08
2022-12-24T06:13:29.253Z,49.55
2022-12-24T06:15:31.196Z,40.75
2022-12-24T06:17:33.639Z,32.17
2022-12-24T06:19:35.365Z,39.75
2022-12-24T06:21:37.111Z,38.03
2022-12-24T06:23:40.614Z,36.97
2022-12-24T06:25:42.310Z,40.75
2022-12-24T06:27:44.054Z,42.70
2022-12-24T06:29:45.733Z,41.25
2022-12-24T06:31:47.465Z,43.72
2022-12-24T06:33:49.714Z,38.67
2022-12-24T06:35:51.477Z,41.60
2022-12-24T06:37:53.164Z,41.22
2022-12-24T06:39:54.894Z,38.70
2022-12-24T06:41:56.581Z,37.50
2022-12-24T06:43:58.328Z,37.65
2022-12-24T06:46:00.587Z,38.05
2022-12-24T06:48:02.492Z,39.80
2022-12-24T06:50:04.897Z,40.08
2022-12-24T06:52:06.980Z,41.72
2022-12-24T06:54:08.968Z,40.95
2022-12-24T06:56:13.552Z,34.53
2022-12-24T06:58:15.272Z,36.78
2022-12-24T07:00:17.507Z,34.35
2022-12-24T07:02:19.373Z,36.72
2022-12-24T07:04:21.229Z,40.65
2022-12-24T07:06:28.636Z,37.88
2022-12-24T07:08:33.682Z,45.63
2022-12-24T07:10:36.666Z,45.83
2022-12-24T07:12:38.483Z,41.80
2022-12-24T07:14:40.315Z,43.85
2022-12-24T07:16:42.037Z,41.17
2022-12-24T07:18:44.441Z,43.75
2022-12-24T07:20:46.250Z,43.53
2022-12-24T07:22:47.952Z,48.92
2022-12-24T07:24:49.616Z,46.58
2022-12-24T07:26:51.558Z,46.42
2022-12-24T07:28:53.512Z,60.78
2022-12-24T07:30:56.779Z,51.45
2022-12-24T07:32:58.556Z,50.17
2022-12-24T07:35:00.370Z,46.58
2022-12-24T07:37:02.180Z,49.08
2022-12-24T07:39:03.969Z,52.85
2022-12-24T07:41:05.874Z,46.15
2022-12-24T07:43:07.878Z,46.13
2022-12-24T07:45:10.527Z,52.88
2022-12-24T07:47:12.340Z,50.47
2022-12-24T07:49:14.201Z,47.25
2022-12-24T07:51:15.880Z,48.72
2022-12-24T07:53:17.641Z,51.17
2022-12-24T07:55:19.638Z,52.28
2022-12-24T07:57:21.441Z,45.67
2022-12-24T07:59:23.330Z,52.10
2022-12-24T08:01:25.197Z,53.85
2022-12-24T08:03:27.916Z,51.72
2022-12-24T08:05:35.069Z,50.38
2022-12-24T08:07:36.844Z,52.40
2022-12-24T08:09:38.661Z,52.60
2022-12-24T08:11:42.442Z,47.28
2022-12-24T08:13:48.222Z,50.88
2022-12-24T08:15:50.011Z,50.65
2022-12-24T08:17:51.845Z,50.80
2022-12-24T08:19:53.583Z,43.45
2022-12-24T08:21:55.449Z,46.25
2022-12-24T08:23:57.640Z,44.13
2022-12-24T08:25:59.380Z,43.40
2022-12-24T08:28:01.201Z,44.50
2022-12-24T08:30:04.280Z,44.00
2022-12-24T08:32:06.148Z,48.95
2022-12-24T08:34:09.212Z,40.13
2022-12-24T08:36:10.952Z,48.63
2022-12-24T08:38:12.758Z,50.80
2022-12-24T08:40:14.492Z,42.92
2022-12-24T08:43:03.978Z,43.53
2022-12-24T08:45:49.123Z,45.25
2022-12-24T08:47:50.845Z,41.85
2022-12-24T08:49:52.863Z,41.92
2022-12-24T08:51:54.597Z,40.08
2022-12-24T08:53:56.318Z,39.05
2022-12-24T08:56:06.006Z,37.58
2022-12-24T08:58:07.829Z,43.53
2022-12-24T09:00:12.211Z,42.60
2022-12-24T09:02:14.215Z,40.03
2022-12-24T09:04:16.162Z,32.75
2022-12-24T09:06:18.107Z,32.95
2022-12-24T09:08:20.715Z,41.92
2022-12-24T09:10:22.660Z,38.83
2022-12-24T09:12:24.417Z,39.53
2022-12-24T09:14:26.707Z,45.83
2022-12-24T09:16:28.904Z,45.78
2022-12-24T09:18:31.062Z,55.28
2022-12-24T09:20:32.913Z,51.28
2022-12-24T09:22:37.149Z,53.88
2022-12-24T09:24:38.910Z,58.10
2022-12-24T09:26:42.584Z,55.40
2022-12-24T09:28:44.836Z,59.67
2022-12-24T09:30:55.801Z,63.50
2022-12-24T09:32:57.566Z,58.63
2022-12-24T09:34:59.537Z,53.90
2022-12-24T09:37:04.233Z,62.72
2022-12-24T09:39:05.927Z,61.42
2022-12-24T09:41:15.100Z,63.33
2022-12-24T09:43:20.690Z,54.10
2022-12-24T09:45:27.072Z,59.80
2022-12-24T09:47:44.141Z,61.38
2022-12-24T09:49:48.832Z,103.78
2022-12-24T09:51:55.810Z,66.82
2022-12-24T09:54:01.188Z,65.47
2022-12-24T09:56:07.329Z,71.60
2022-12-24T09:58:18.925Z,73.30
2022-12-24T10:00:32.629Z,68.72
2022-12-24T10:02:34.509Z,83.88
2022-12-24T10:04:36.162Z,87.97
2022-12-24T10:06:46.275Z,84.55
2022-12-24T10:09:03.722Z,101.72
2022-12-24T10:11:30.271Z,109.30
2022-12-24T10:13:49.916Z,106.80
2022-12-24T10:16:15.107Z,111.70
2022-12-24T10:18:38.540Z,103.53
2022-12-24T10:20:53.266Z,109.22
2022-12-24T10:23:08.986Z,132.00
2022-12-24T10:25:22.253Z,116.18
2022-12-24T10:27:28.658Z,114.68
2022-12-24T10:29:37.502Z,103.35
2022-12-24T10:31:58.109Z,106.63
2022-12-24T10:34:06.712Z,103.28
2022-12-24T10:36:13.378Z,106.82
2022-12-24T10:38:15.121Z,99.28
2022-12-24T10:40:31.609Z,100.20
2022-12-24T10:42:51.124Z,96.22
2022-12-24T10:44:58.119Z,99.00
2022-12-24T10:46:59.961Z,101.63
2022-12-24T10:49:04.433Z,98.45
2022-12-24T10:51:13.495Z,97.80
2022-12-24T10:53:20.459Z,96.97
2022-12-24T10:55:29.087Z,96.28
2022-12-24T10:57:30.784Z,104.47
2022-12-24T10:59:59.702Z,100.53
2022-12-24T11:02:02.191Z,99.97
2022-12-24T11:04:04.696Z,90.18
2022-12-24T11:06:10.957Z,90.40
2022-12-24T11:08:17.445Z,94.22
2022-12-24T11:10:23.970Z,91.30
2022-12-24T11:12:32.610Z,91.53
2022-12-24T11:14:38.885Z,93.25
2022-12-24T11:16:40.570Z,92.68
2022-12-24T11:18:51.962Z,83.82
2022-12-24T11:20:54.240Z,88.30
2022-12-24T11:22:56.887Z,91.70
2022-12-24T11:25:20.391Z,110.65
2022-12-24T11:27:24.571Z,89.60
2022-12-24T11:29:28.259Z,89.95
2022-12-24T11:31:33.064Z,91.20
2022-12-24T11:33:47.450Z,89.10
2022-12-24T11:38:01.517Z,92.35
2022-12-24T11:40:03.562Z,82.85
2022-12-24T11:42:05.521Z,83.70
2022-12-24T11:44:09.244Z,91.95
2022-12-24T11:46:21.208Z,67.80
2022-12-24T11:48:34.059Z,75.80
2022-12-24T11:50:40.112Z,66.07
2022-12-24T11:52:42.889Z,59.00
2022-12-24T11:55:13.764Z,53.03
2022-12-24T11:57:20.654Z,58.95
2022-12-24T11:59:44.239Z,56.65
2022-12-24T12:02:29.265Z,58.88
2022-12-24T12:04:33.732Z,61.65
2022-12-24T12:06:42.586Z,67.25
2022-12-24T12:08:46.488Z,69.25
2022-12-24T12:13:15.938Z,65.88
2022-12-24T12:15:22.190Z,66.43
2022-12-24T12:17:35.567Z,67.85
2022-12-24T12:19:39.210Z,67.22
2022-12-24T12:21:45.179Z,87.43
2022-12-24T12:24:04.748Z,72.53
2022-12-24T12:26:23.728Z,83.70
2022-12-24T12:28:41.821Z,91.63
2022-12-24T12:30:45.244Z,92.35
2022-12-24T12:33:06.227Z,91.75
2022-12-24T12:35:27.744Z,97.93
2022-12-24T12:37:35.874Z,88.78
2022-12-24T12:39:37.684Z,91.32
2022-12-24T12:41:45.139Z,95.40
2022-12-24T12:44:29.882Z,87.35
2022-12-24T12:46:44.156Z,80.65
2022-12-24T12:49:02.946Z,91.85
2022-12-24T12:51:27.116Z,85.55
2022-12-24T12:53:50.536Z,98.80
2022-12-24T12:56:17.460Z,88.65
2022-12-24T12:59:00.630Z,88.25
2022-12-24T13:01:36.310Z,85.38
2022-12-24T13:04:08.242Z,88.55
2022-12-24T13:06:18.782Z,73.18
2022-12-24T13:08:46.111Z,73.57
2022-12-24T13:11:02.495Z,71.90
2022-12-24T13:13:30.228Z,61.47
2022-12-24T13:15:41.952Z,60.88
2022-12-24T13:18:01.473Z,63.38
2022-12-24T13:20:32.580Z,65.47
2022-12-24T13:22:34.436Z,63.47
2022-12-24T13:24:36.770Z,62.35
2022-12-24T13:26:38.685Z,65.07
2022-12-24T13:28:40.432Z,79.78
2022-12-24T13:30:42.537Z,73.68
2022-12-24T13:32:50.404Z,79.70
2022-12-24T13:35:03.146Z,67.60
2022-12-24T13:37:20.136Z,73.13
2022-12-24T13:39:22.085Z,75.53
2022-12-24T13:41:40.638Z,68.80
2022-12-24T13:44:16.116Z,69.32
2022-12-24T13:46:58.312Z,70.53
2022-12-24T13:49:11.778Z,80.28
2022-12-24T13:51:25.243Z,82.85
2022-12-24T13:53:48.177Z,79.80
2022-12-24T13:55:53.086Z,82.10
2022-12-24T13:57:57.492Z,80.15
2022-12-24T14:00:21.447Z,75.53
2022-12-24T14:02:23.595Z,81.80
2022-12-24T14:04:29.404Z,84.70
2022-12-24T14:06:34.119Z,75.30
2022-12-24T14:08:44.649Z,87.03
2022-12-24T14:10:57.692Z,96.75
2022-12-24T14:12:59.547Z,85.32
2022-12-24T14:15:39.657Z,83.03
2022-12-24T14:17:41.483Z,86.00
2022-12-24T14:19:46.613Z,90.95
2022-12-24T14:22:16.398Z,97.97
2022-12-24T14:24:20.997Z,94.90
2022-12-24T14:26:28.646Z,92.38
2022-12-24T14:28:35.939Z,97.78
2022-12-24T14:30:37.633Z,107.28
2022-12-24T14:32:41.501Z,70.30
2022-12-24T14:36:46.640Z,84.30
2022-12-24T14:38:49.941Z,81.43
2022-12-24T14:41:13.394Z,75.82
2022-12-24T14:43:52.866Z,55.97
2022-12-24T14:46:22.045Z,69.85
2022-12-24T14:49:14.681Z,46.17
2022-12-24T14:51:50.557Z,39.97
2022-12-24T14:54:13.835Z,33.45
2022-12-24T14:56:20.773Z,35.38
2022-12-24T14:58:26.871Z,28.10
2022-12-24T15:00:28.739Z,29.35
2022-12-24T15:02:50.604Z,23.80
2022-12-24T15:05:19.789Z,33.63
2022-12-24T15:07:21.760Z,27.35
2022-12-24T15:09:29.596Z,29.13
2022-12-24T15:11:31.354Z,23.40
2022-12-24T15:13:38.471Z,21.10
2022-12-24T15:15:46.940Z,28.02
2022-12-24T15:17:54.494Z,18.00
2022-12-24T15:19:59.285Z,22.23
2022-12-24T15:22:02.464Z,21.25
2022-12-24T15:24:04.711Z,18.92
2022-12-24T15:26:29.696Z,17.20
2022-12-24T15:28:37.273Z,16.67
2022-12-24T15:30:39.070Z,13.95
2022-12-24T15:32:41.184Z,15.50
2022-12-24T15:34:46.423Z,14.77
2022-12-24T15:36:48.202Z,12.80
2022-12-24T15:38:52.676Z,15.00
2022-12-24T15:40:55.092Z,14.77
2022-12-24T15:42:56.849Z,13.43
2022-12-24T15:45:12.069Z,15.52
2022-12-24T15:47:19.779Z,16.00
2022-12-24T15:49:21.648Z,13.65
2022-12-24T15:51:26.299Z,13.82
2022-12-24T15:53:27.917Z,13.88
2022-12-24T15:55:34.132Z,15.85
2022-12-24T15:57:35.886Z,14.52
2022-12-24T15:59:37.746Z,16.20
2022-12-24T16:01:39.789Z,15.90
2022-12-24T16:03:55.252Z,11.48
2022-12-24T16:06:04.748Z,16.45
2022-12-24T16:08:16.770Z,15.02
2022-12-24T16:10:25.889Z,14.88
2022-12-24T16:12:27.621Z,14.98
2022-12-24T16:14:30.128Z,17.25
2022-12-24T16:16:41.974Z,17.40
2022-12-24T16:18:51.484Z,15.52
2022-12-24T16:20:54.938Z,12.30
2022-12-24T16:22:56.662Z,14.48
2022-12-24T16:25:08.934Z,15.13
2022-12-24T16:27:13.788Z,15.50
2022-12-24T16:29:16.519Z,15.98
2022-12-24T16:31:19.787Z,17.55
2022-12-24T16:33:23.604Z,19.88
2022-12-24T16:35:27.811Z,21.13
2022-12-24T16:37:29.653Z,20.50
2022-12-24T16:39:33.568Z,21.58
2022-12-24T16:43:56.820Z,28.10
2022-12-24T16:46:04.463Z,39.67
2022-12-24T16:48:07.376Z,41.92
2022-12-24T16:50:15.551Z,43.53
2022-12-24T16:52:26.352Z,34.90
2022-12-24T16:54:30.254Z,35.47
2022-12-24T16:58:33.610Z,24.38
2022-12-24T17:00:36.363Z,25.67
2022-12-24T17:02:39.879Z,26.83
2022-12-24T17:04:42.184Z,27.50
2022-12-24T17:06:44.316Z,22.42
2022-12-24T17:08:45.952Z,25.95
2022-12-24T17:10:51.832Z,25.52
2022-12-24T17:12:53.817Z,24.17
2022-12-24T17:14:55.522Z,26.98
2022-12-24T17:16:57.241Z,26.42
2022-12-24T17:18:58.872Z,22.98
2022-12-24T17:21:01.905Z,25.65
2022-12-24T17:23:03.915Z,23.45
2022-12-24T17:25:06.743Z,24.10
2022-12-24T17:27:08.565Z,22.25
2022-12-24T17:29:10.927Z,18.92
2022-12-24T17:31:15.263Z,19.05
2022-12-24T17:33:17.089Z,21.08
2022-12-24T17:35:18.927Z,18.30
2022-12-24T17:37:20.639Z,17.10
2022-12-24T17:39:27.535Z,17.38
2022-12-24T17:41:29.714Z,29.05
2022-12-24T17:43:31.588Z,26.52
2022-12-24T17:45:33.435Z,19.17
2022-12-24T17:47:35.107Z,14.00
2022-12-24T17:49:37.408Z,20.05
2022-12-24T17:51:45.062Z,12.75
2022-12-24T17:53:48.293Z,13.35
2022-12-24T17:55:50.001Z,11.93
2022-12-24T17:57:51.966Z,15.93
2022-12-24T17:59:53.679Z,14.65
2022-12-24T18:01:55.546Z,14.25
2022-12-24T18:04:02.122Z,17.20
2022-12-24T18:06:06.058Z,13.85
2022-12-24T18:10:09.925Z,15.70
2022-12-24T18:12:13.072Z,16.70
2022-12-24T18:14:15.495Z,14.35
2022-12-24T18:16:22.779Z,15.85
2022-12-24T18:18:25.014Z,15.55
2022-12-24T18:20:27.021Z,17.33
2022-12-24T18:22:28.748Z,19.73
2022-12-24T18:24:30.428Z,19.67
2022-12-24T18:26:33.443Z,16.98
2022-12-24T18:28:35.178Z,15.13
2022-12-24T18:30:39.091Z,14.32
2022-12-24T18:34:43.167Z,11.15
2022-12-24T18:36:48.283Z,11.82
2022-12-24T18:38:53.050Z,10.70
2022-12-24T18:40:54.822Z,11.65
2022-12-24T18:42:56.649Z,11.55
2022-12-24T18:44:58.405Z,7.88
2022-12-24T18:47:00.233Z,8.38
2022-12-24T18:49:02.415Z,8.32
2022-12-24T18:51:05.115Z,7.78
2022-12-24T18:53:07.839Z,7.18
2022-12-24T18:55:09.920Z,10.32
2022-12-24T18:57:12.223Z,10.13
2022-12-24T18:59:13.872Z,8.40
2022-12-24T19:01:18.776Z,8.70
2022-12-24T19:03:20.620Z,9.55
2022-12-24T19:05:22.450Z,8.48
2022-12-24T19:07:24.269Z,9.25
2022-12-24T19:09:26.180Z,8.02
2022-12-24T19:11:30.032Z,9.07
2022-12-24T19:15:35.977Z,7.30
2022-12-24T19:17:37.856Z,7.63
2022-12-24T19:19:40.247Z,9.35
2022-12-24T19:21:41.994Z,6.47
2022-12-24T19:23:44.569Z,8.07
2022-12-24T19:25:46.327Z,5.88
2022-12-24T19:27:48.157Z,9.45
2022-12-24T19:29:49.918Z,8.10
2022-12-24T19:31:51.761Z,8.13
2022-12-24T19:33:56.102Z,7.28
2022-12-24T19:35:57.793Z,8.88
2022-12-24T19:37:59.747Z,7.68
2022-12-24T19:40:01.455Z,8.85
2022-12-24T19:42:03.577Z,9.10
2022-12-24T19:44:05.492Z,8.35
2022-12-24T19:46:12.538Z,8.23
2022-12-24T19:48:14.412Z,6.85
2022-12-24T19:50:17.290Z,9.27
2022-12-24T19:52:19.035Z,8.65
2022-12-24T19:54:20.982Z,7.50
2022-12-24T19:56:23.859Z,6.60
2022-12-24T19:58:26.656Z,10.82
2022-12-24T20:00:28.451Z,11.00
2022-12-24T20:02:30.333Z,9.32
2022-12-24T20:04:32.399Z,6.90
2022-12-24T20:06:35.462Z,9.25
2022-12-24T20:08:38.110Z,7.47
2022-12-24T20:10:41.623Z,8.52
2022-12-24T20:12:43.312Z,5.53
2022-12-24T20:14:45.459Z,7.22
2022-12-24T20:16:47.137Z,5.82
2022-12-24T20:18:53.328Z,6.35
2022-12-24T20:20:59.235Z,7.72
2022-12-24T20:23:01.504Z,6.95
2022-12-24T20:25:03.359Z,9.23
2022-12-24T20:27:05.199Z,8.18
2022-12-24T20:29:08.942Z,8.50
2022-12-24T20:31:12.754Z,8.00
2022-12-24T20:35:16.170Z,8.65
2022-12-24T20:37:17.965Z,10.60
2022-12-24T20:39:19.696Z,11.82
2022-12-24T20:41:22.720Z,12.10
2022-12-24T20:43:26.490Z,11.02
2022-12-24T20:45:30.025Z,13.90
2022-12-24T20:47:32.349Z,11.70
2022-12-24T20:49:34.082Z,12.43
2022-12-24T20:51:35.773Z,19.27
2022-12-24T20:53:39.271Z,11.30
2022-12-24T20:55:41.295Z,9.65
2022-12-24T20:57:43.681Z,11.80
2022-12-24T20:59:45.371Z,11.60
2022-12-24T21:01:47.192Z,11.73
2022-12-24T21:03:49.042Z,13.23
2022-12-24T21:05:50.756Z,12.68
2022-12-24T21:07:52.465Z,13.93
2022-12-24T21:09:54.200Z,14.82
2022-12-24T21:11:56.009Z,16.30
2022-12-24T21:13:57.797Z,14.30
2022-12-24T21:15:59.540Z,14.30
2022-12-24T21:18:01.951Z,15.02
2022-12-24T21:20:04.874Z,16.88
2022-12-24T21:22:06.536Z,23.23
2022-12-24T21:24:09.397Z,23.40
2022-12-24T21:26:11.340Z,29.10
2022-12-24T21:28:13.103Z,21.85
2022-12-24T21:30:14.876Z,25.15
2022-12-24T21:32:16.621Z,19.52
2022-12-24T21:34:18.300Z,17.60
2022-12-24T21:36:20.881Z,17.60
2022-12-24T21:38:22.601Z,14.45
2022-12-24T21:40:24.298Z,12.57
2022-12-24T21:42:26.730Z,12.77
2022-12-24T21:44:28.567Z,13.23
2022-12-24T21:46:30.460Z,16.40
2022-12-24T21:48:50.847Z,10.45
2022-12-24T21:50:55.578Z,14.35
2022-12-24T21:53:18.484Z,8.82
2022-12-24T21:55:20.151Z,9.75
2022-12-24T21:57:40.799Z,9.25
2022-12-24T21:59:42.582Z,12.27
2022-12-24T22:01:44.444Z,7.55
2022-12-24T22:03:50.166Z,10.77
2022-12-24T22:05:52.217Z,6.45
2022-12-24T22:08:13.349Z,8.05
2022-12-24T22:10:33.778Z,9.80
2022-12-24T22:12:36.212Z,7.35
2022-12-24T22:14:38.108Z,4.57
2022-12-24T22:16:39.747Z,5.97
2022-12-24T22:18:41.445Z,7.85
2022-12-24T22:20:44.961Z,4.20
2022-12-24T22:22:48.603Z,5.47
2022-12-24T22:24:50.301Z,7.03
2022-12-24T22:26:52.584Z,5.57
2022-12-24T22:28:54.365Z,5.15
2022-12-24T22:30:57.213Z,6.22
2022-12-24T22:32:59.208Z,6.45
2022-12-24T22:35:00.921Z,4.97
2022-12-24T22:37:02.659Z,5.50
2022-12-24T22:39:04.841Z,6.43
2022-12-24T22:41:10.702Z,6.15
2022-12-24T22:43:12.321Z,4.93
2022-12-24T22:45:18.537Z,5.15
2022-12-24T22:47:23.734Z,4.85
2022-12-24T22:49:25.319Z,5.85
2022-12-24T22:51:28.161Z,5.30
2022-12-24T22:53:29.890Z,7.97
2022-12-24T22:55:31.536Z,6.50
2022-12-24T22:57:33.279Z,5.13
2022-12-24T22:59:36.471Z,5.53
2022-12-24T23:01:39.855Z,6.22
2022-12-24T23:03:41.944Z,5.38
2022-12-24T23:05:44.185Z,6.90
2022-12-24T23:07:45.985Z,5.90
2022-12-24T23:09:47.592Z,5.50
2022-12-24T23:11:49.291Z,4.90
2022-12-24T23:14:09.960Z,6.93
2022-12-24T23:16:11.755Z,6.28
2022-12-24T23:18:13.743Z,11.30
2022-12-24T23:20:15.823Z,6.30
2022-12-24T23:22:17.486Z,9.50
2022-12-24T23:24:19.152Z,6.53
2022-12-24T23:26:22.251Z,9.60
2022-12-24T23:28:24.079Z,10.88
2022-12-24T23:30:25.809Z,16.38
2022-12-24T23:32:27.644Z,7.97
2022-12-24T23:34:29.354Z,12.35
2022-12-24T23:36:31.041Z,7.72
2022-12-24T23:38:33.345Z,10.30
2022-12-24T23:40:35.083Z,8.07
2022-12-24T23:42:36.703Z,8.43
2022-12-24T23:44:38.466Z,7.53
2022-12-24T23:46:40.726Z,10.80
2022-12-24T23:48:42.744Z,8.80
2022-12-24T23:50:45.328Z,6.55
2022-12-24T23:52:47.046Z,5.40
2022-12-24T23:54:48.783Z,8.20
2022-12-24T23:56:50.498Z,6.07
2022-12-24T23:58:52.283Z,6.82
